Time;durP1;ratioP1;P1;durP2;ratioP2;P2;SDS_P1;SDS_P2;PMS_P1;PMS_P2;Temp;Humidity;BMP_temperature;BMP_pressure;BME280_temperature;BME280_humidity;BME280_pressure;Samples;Min_cycle;Max_cycle;Signal;HPM_P1;HPM_P2
2023/06/02 00:01:54;;;;;;;10.82;3.78;;;15.60;60.80;;;15.03;48.30;100984.81;5026335;28;20076;-81
2023/06/02 00:04:26;;;;;;;8.98;3.47;;;15.60;60.60;;;15.04;48.27;100996.38;5026619;28;20041;-79
2023/06/02 00:06:55;;;;;;;6.43;2.88;;;15.60;60.70;;;15.05;48.30;100996.13;5025987;28;20042;-80
2023/06/02 00:09:22;;;;;;;9.95;3.35;;;15.60;60.60;;;15.03;48.09;100994.72;5027721;28;20411;-80
2023/06/02 00:11:50;;;;;;;9.35;3.50;;;15.60;60.50;;;15.01;48.23;100999.50;5025240;28;20042;-80
2023/06/02 00:14:17;;;;;;;10.88;3.55;;;15.60;60.60;;;14.99;48.28;100996.25;5010355;28;20548;-80
2023/06/02 00:16:46;;;;;;;13.15;4.22;;;15.50;60.60;;;14.98;48.41;101002.63;5028223;28;20046;-81
2023/06/02 00:19:14;;;;;;;9.48;3.95;;;15.50;61.00;;;14.96;48.37;100992.13;5026713;28;20094;-81
2023/06/02 00:21:45;;;;;;;10.60;3.65;;;15.50;61.00;;;14.95;48.68;100995.88;5026671;28;20052;-80
2023/06/02 00:24:13;;;;;;;12.23;4.18;;;15.50;61.30;;;14.96;48.76;100994.00;5023218;28;20116;-79
2023/06/02 00:26:40;;;;;;;11.90;4.40;;;15.50;61.40;;;14.93;48.48;100993.41;5029972;28;20083;-80
2023/06/02 00:29:08;;;;;;;10.48;4.75;;;15.50;61.20;;;14.91;48.71;100991.97;5010592;28;20706;-81
2023/06/02 00:31:35;;;;;;;8.50;4.00;;;15.50;61.40;;;14.91;48.87;100998.16;5029441;28;20536;-79
2023/06/02 00:34:03;;;;;;;10.30;4.28;;;15.50;61.40;;;14.88;48.62;100995.13;5030946;28;20053;-79
2023/06/02 00:36:30;;;;;;;14.25;4.53;;;15.50;61.20;;;14.87;48.69;100990.78;5014280;28;20379;-80
2023/06/02 00:38:59;;;;;;;12.85;5.18;;;15.40;61.20;;;14.86;49.20;100995.34;5027934;28;20046;-80
2023/06/02 00:41:26;;;;;;;13.93;5.22;;;15.40;61.60;;;14.84;48.82;100992.09;5029372;28;20052;-81
2023/06/02 00:43:54;;;;;;;7.03;4.32;;;15.40;61.30;;;14.84;48.94;100992.09;5026227;28;20046;-80
2023/06/02 00:46:21;;;;;;;14.93;5.72;;;15.40;61.50;;;14.83;48.74;100989.59;5031576;28;20046;-82
2023/06/02 00:48:49;;;;;;;10.98;5.18;;;15.40;61.20;;;14.79;48.36;101005.38;5011411;28;20383;-80
2023/06/02 00:51:17;;;;;;;12.35;5.88;;;15.40;60.90;;;14.79;48.75;100997.31;5028818;28;20045;-81
2023/06/02 00:53:46;;;;;;;12.48;5.50;;;15.40;61.20;;;14.79;48.60;100994.63;5027835;28;20041;-80
2023/06/02 00:56:15;;;;;;;10.68;5.35;;;15.40;61.10;;;14.80;48.84;100990.06;4999150;28;20156;-81
2023/06/02 00:58:45;;;;;;;15.63;6.85;;;15.40;61.50;;;14.80;48.99;100990.88;5029302;28;20033;-80
2023/06/02 01:01:13;;;;;;;12.73;7.13;;;15.40;61.50;;;14.79;48.77;100991.13;5010750;28;20080;-80
2023/06/02 01:03:43;;;;;;;10.77;6.65;;;15.40;61.40;;;14.77;48.51;100991.34;5011648;28;20041;-79
2023/06/02 01:06:12;;;;;;;16.87;9.07;;;15.40;60.80;;;14.76;48.51;101000.44;5013066;28;20050;-79
2023/06/02 01:08:41;;;;;;;16.10;8.10;;;15.30;60.80;;;14.73;48.34;100997.38;5029802;28;20119;-81
2023/06/02 01:11:09;;;;;;;14.85;8.20;;;15.30;60.60;;;14.70;48.33;100990.59;5011242;28;20053;-81
2023/06/02 01:13:38;;;;;;;12.30;8.07;;;15.30;60.80;;;14.67;48.35;100988.38;5007762;28;20046;-81
2023/06/02 01:16:05;;;;;;;15.90;9.75;;;15.30;60.80;;;14.62;48.23;100989.03;5008957;28;20049;-80
2023/06/02 01:18:35;;;;;;;16.08;8.90;;;15.30;60.80;;;14.60;48.27;100990.31;5028739;28;20472;-81
2023/06/02 01:21:05;;;;;;;18.17;9.18;;;15.20;60.70;;;14.57;48.25;100986.22;5028564;28;20045;-80
2023/06/02 01:23:36;;;;;;;13.88;8.20;;;15.20;60.60;;;14.57;48.25;100994.25;5025573;28;20502;-80
2023/06/02 01:26:06;;;;;;;17.38;7.13;;;15.20;60.70;;;14.58;48.37;100981.66;5029375;28;20071;-81
2023/06/02 01:28:33;;;;;;;15.82;6.43;;;15.20;60.60;;;14.58;48.21;100987.03;5011872;28;20407;-79
2023/06/02 01:31:10;;;;;;;11.45;6.50;;;15.20;60.60;;;14.52;48.29;100982.56;5027379;28;20045;-79
2023/06/02 01:33:45;;;;;;;12.75;6.40;;;15.10;60.60;;;14.53;48.23;100978.81;5008412;28;20509;-80
2023/06/02 01:36:13;;;;;;;13.35;6.18;;;15.10;60.70;;;14.53;48.49;100976.16;5027467;28;20045;-81
2023/06/02 01:38:44;;;;;;;11.10;6.28;;;15.10;61.00;;;14.52;48.19;100977.19;5028291;28;20045;-81
2023/06/02 01:41:14;;;;;;;12.95;5.82;;;15.10;60.60;;;14.49;48.34;100983.00;5028442;28;20658;-79
2023/06/02 01:43:42;;;;;;;13.43;5.23;;;15.00;60.70;;;14.47;48.34;100980.53;5011055;28;20069;-80
2023/06/02 01:46:12;;;;;;;10.35;4.97;;;15.10;60.80;;;14.49;48.69;100983.00;5008835;28;20838;-80
2023/06/02 01:48:41;;;;;;;14.57;5.13;;;15.10;61.40;;;14.43;48.55;100985.50;5029324;28;20147;-81
2023/06/02 01:51:08;;;;;;;9.43;4.30;;;15.00;60.90;;;14.36;48.55;100983.97;5012062;28;20038;-81
2023/06/02 01:53:35;;;;;;;12.98;3.83;;;14.90;61.00;;;14.33;48.47;100979.84;5006121;28;20045;-80
2023/06/02 01:56:02;;;;;;;9.73;3.75;;;14.90;61.00;;;14.30;48.39;100977.63;5011467;28;20458;-80
2023/06/02 01:58:31;;;;;;;12.10;3.85;;;14.90;61.00;;;14.28;48.19;100977.00;5028603;28;20437;-81
2023/06/02 02:01:00;;;;;;;15.68;3.85;;;14.80;60.80;;;14.23;48.19;100978.72;5010950;28;20044;-79
2023/06/02 02:03:29;;;;;;;13.65;3.88;;;14.80;60.50;;;14.18;48.08;100979.38;5025681;28;20115;-80
2023/06/02 02:05:58;;;;;;;18.00;4.25;;;14.70;60.40;;;14.18;48.16;100976.72;5051968;22;20049;-78
2023/06/02 02:08:25;;;;;;;15.57;3.65;;;14.70;60.60;;;14.19;47.96;100981.03;5046325;28;20048;-79
2023/06/02 02:10:52;;;;;;;10.35;3.78;;;14.70;60.50;;;14.16;47.87;100984.16;5046351;28;20106;-77
2023/06/02 02:13:19;;;;;;;12.20;3.55;;;14.70;60.30;;;14.17;48.18;100985.81;5046435;28;20056;-79
2023/06/02 02:15:48;;;;;;;12.75;3.90;;;14.70;60.60;;;14.15;47.68;100990.56;5014522;28;20349;-78
2023/06/02 02:18:15;;;;;;;15.07;4.10;;;14.70;60.00;;;14.10;47.53;100993.06;5011470;28;20052;-78
2023/06/02 02:20:44;;;;;;;11.80;3.72;;;14.70;60.10;;;14.06;47.43;100987.34;5026953;28;20583;-79
2023/06/02 02:23:12;;;;;;;13.13;4.10;;;14.60;59.70;;;14.01;47.22;100991.75;5026043;28;20046;-78
2023/06/02 02:25:39;;;;;;;17.13;4.30;;;14.60;59.50;;;13.98;47.37;100992.19;5029348;28;20140;-78
2023/06/02 02:28:07;;;;;;;17.35;3.75;;;14.50;59.70;;;13.93;47.44;100997.38;5028439;28;20053;-79
2023/06/02 02:30:34;;;;;;;11.80;3.85;;;14.50;59.60;;;13.87;47.30;101004.44;5028724;28;20073;-78
2023/06/02 02:33:03;;;;;;;13.57;3.75;;;14.50;59.50;;;13.85;47.15;100998.47;5002935;28;20644;-79
2023/06/02 02:35:30;;;;;;;11.55;3.85;;;14.40;59.30;;;13.84;47.29;101003.03;5029311;28;20494;-78
2023/06/02 02:37:59;;;;;;;18.00;4.38;;;14.40;59.50;;;13.82;47.31;100997.06;5011657;28;20587;-79
2023/06/02 02:40:28;;;;;;;12.43;4.55;;;14.40;59.40;;;13.79;47.37;101005.53;5009647;28;20764;-78
2023/06/02 02:42:56;;;;;;;14.75;4.25;;;14.40;59.70;;;13.81;47.00;100999.94;5025624;28;20057;-79
2023/06/02 02:45:24;;;;;;;18.95;4.47;;;14.40;59.40;;;13.80;47.31;100995.63;5020943;28;20079;-78
2023/06/02 02:47:51;;;;;;;16.20;4.72;;;14.40;59.70;;;13.83;47.27;101001.38;5027997;28;20053;-78
2023/06/02 02:50:21;;;;;;;12.88;4.00;;;14.40;59.50;;;13.83;47.15;101003.25;5009646;28;20564;-78
2023/06/02 02:52:49;;;;;;;19.02;4.60;;;14.40;59.30;;;13.81;47.31;101002.63;5007877;28;20100;-78
2023/06/02 02:55:16;;;;;;;13.25;4.30;;;14.40;59.70;;;13.84;47.53;101003.03;5010765;28;20056;-79
2023/06/02 02:57:43;;;;;;;12.55;4.13;;;14.40;59.80;;;13.83;47.09;100998.69;5029124;28;20052;-79
2023/06/02 03:00:13;;;;;;;18.70;4.55;;;14.40;59.50;;;13.84;47.81;101005.69;5010774;28;20137;-78
2023/06/02 03:02:40;;;;;;;16.55;4.72;;;14.40;60.00;;;13.82;47.16;100999.75;5027144;28;20398;-78
2023/06/02 03:05:10;;;;;;;14.07;4.25;;;14.40;59.60;;;13.83;47.37;101003.25;5008896;28;20049;-80
2023/06/02 03:07:39;;;;;;;18.75;4.20;;;14.40;59.70;;;13.82;47.63;101013.16;5008502;28;20064;-78
2023/06/02 03:10:08;;;;;;;16.23;5.53;;;14.40;60.00;;;13.83;47.85;101003.25;5011177;28;20485;-77
2023/06/02 03:12:36;;;;;;;15.15;4.80;;;14.40;60.20;;;13.82;47.78;101004.28;5006926;28;20037;-78
2023/06/02 03:15:04;;;;;;;18.02;5.00;;;14.40;60.20;;;13.80;47.95;100992.94;5025618;28;20049;-78
2023/06/02 03:17:32;;;;;;;17.67;5.57;;;14.40;60.20;;;13.79;47.81;101002.84;5003779;28;20056;-77
2023/06/02 03:19:59;;;;;;;15.73;5.15;;;14.40;60.20;;;13.77;47.69;101013.00;5009287;28;20490;-79
2023/06/02 03:22:28;;;;;;;18.38;5.70;;;14.40;59.90;;;13.71;47.55;101008.47;5024574;28;20108;-78
2023/06/02 03:24:57;;;;;;;16.70;5.50;;;14.30;59.80;;;13.69;47.45;101013.25;5007528;28;20076;-79
2023/06/02 03:27:25;;;;;;;17.50;5.50;;;14.30;59.70;;;13.69;47.48;101015.13;5009159;28;20065;-78
2023/06/02 03:29:55;;;;;;;17.58;5.72;;;14.30;59.90;;;13.68;47.52;101025.03;5012040;28;20049;-77
2023/06/02 03:32:27;;;;;;;17.77;5.93;;;14.30;59.80;;;13.64;47.67;101015.75;5014167;28;20052;-79
2023/06/02 03:34:55;;;;;;;18.52;6.25;;;14.20;59.90;;;13.64;47.51;101015.75;5012892;28;20050;-78
2023/06/02 03:37:22;;;;;;;15.32;5.88;;;14.20;59.70;;;13.59;47.72;101011.06;5008406;28;20053;-80
2023/06/02 03:39:50;;;;;;;20.23;7.30;;;14.20;60.20;;;13.60;47.80;101011.88;5009305;28;20129;-78
2023/06/02 03:42:20;;;;;;;17.73;6.55;;;14.20;60.20;;;13.62;47.87;101012.50;5007998;28;20037;-78
2023/06/02 03:44:48;;;;;;;15.77;6.60;;;14.10;60.20;;;13.62;47.87;101012.50;5006246;28;20084;-79
2023/06/02 03:47:16;;;;;;;18.08;6.55;;;14.20;60.40;;;13.62;47.83;101015.19;5013488;28;20502;-78
2023/06/02 03:49:43;;;;;;;15.73;6.53;;;14.20;60.30;;;13.63;48.12;101017.63;5009541;28;20052;-77
2023/06/02 03:52:10;;;;;;;18.55;7.50;;;14.20;60.60;;;13.68;48.22;101022.34;5025521;28;20033;-79
2023/06/02 03:54:38;;;;;;;18.40;6.68;;;14.20;60.80;;;13.67;48.58;101017.19;5005536;28;20060;-78
2023/06/02 03:57:06;;;;;;;13.02;6.35;;;14.20;61.10;;;13.66;48.49;101021.72;5008826;28;20049;-78
2023/06/02 03:59:35;;;;;;;23.95;7.40;;;14.20;60.90;;;13.65;48.29;101014.72;5006781;28;20046;-79
2023/06/02 04:02:03;;;;;;;16.90;7.00;;;14.20;60.80;;;13.65;48.49;101023.59;5009443;28;20140;-81
2023/06/02 04:04:31;;;;;;;17.77;7.55;;;14.20;61.00;;;13.65;48.32;101028.13;5010228;28;20107;-76
2023/06/02 04:06:59;;;;;;;18.13;7.63;;;14.20;60.80;;;13.64;48.32;101021.94;5013351;28;20042;-82
2023/06/02 04:09:27;;;;;;;18.02;7.60;;;14.20;60.80;;;13.64;48.47;101024.63;5012590;28;20045;-83
2023/06/02 04:11:54;;;;;;;15.00;7.20;;;14.20;60.70;;;13.67;48.40;101028.75;5009985;28;20133;-84
2023/06/02 04:14:22;;;;;;;19.35;9.07;;;14.20;61.00;;;13.68;48.64;101024.19;5015550;28;20053;-85
2023/06/02 04:16:52;;;;;;;23.23;9.57;;;14.30;61.30;;;13.69;48.40;101032.00;5027835;28;20042;-84
2023/06/02 04:19:22;;;;;;;17.77;9.75;;;14.30;61.10;;;13.71;48.61;101035.28;5010464;28;20049;-85
2023/06/02 04:21:49;;;;;;;18.08;9.68;;;14.30;61.20;;;13.73;48.36;101037.78;5011350;28;20064;-85
2023/06/02 04:24:16;;;;;;;16.42;9.23;;;14.30;61.20;;;13.73;48.51;101043.94;5011630;28;20099;-83
2023/06/02 04:26:44;;;;;;;21.60;9.60;;;14.30;61.20;;;13.75;48.84;101035.69;5013376;28;20052;-84
2023/06/02 04:29:11;;;;;;;24.77;9.52;;;14.40;61.40;;;13.76;48.56;101038.16;5012234;28;20045;-84
2023/06/02 04:31:42;;;;;;;22.38;8.60;;;14.40;61.20;;;13.77;48.58;101038.97;5024455;28;20042;-82
2023/06/02 04:34:12;;;;;;;;;;;14.40;61.10;;;13.76;48.47;101038.16;5010741;28;20048;-82
2023/06/02 04:36:41;;;;;;;22.25;10.23;;;14.40;60.90;;;13.71;48.32;101043.31;5029365;28;19925;-83
2023/06/02 04:39:10;;;;;;;20.50;10.10;;;14.30;60.70;;;13.68;48.25;101041.09;5030474;28;20045;-85
2023/06/02 04:41:38;;;;;;;21.38;10.65;;;14.30;60.70;;;13.70;48.29;101049.72;5011467;28;20589;-81
2023/06/02 04:44:08;;;;;;;19.02;9.38;;;14.30;60.80;;;13.68;48.38;101040.28;5017644;28;20057;-82
2023/06/02 04:46:36;;;;;;;19.45;9.70;;;14.30;60.80;;;13.69;48.33;101034.69;5025377;28;20034;-82
2023/06/02 04:49:07;;;;;;;15.52;8.32;;;14.30;61.00;;;13.69;48.45;101042.75;5011610;28;20139;-81
2023/06/02 04:51:37;;;;;;;23.00;9.32;;;14.30;61.10;;;13.69;48.25;101032.00;5000505;28;20564;-82
2023/06/02 04:54:05;;;;;;;20.35;8.10;;;14.30;60.70;;;13.71;48.38;101040.66;5021999;28;20129;-82
2023/06/02 04:56:35;;;;;;;25.80;7.35;;;14.30;60.90;;;13.70;48.13;101036.34;5004174;28;20049;-83
2023/06/02 04:59:03;;;;;;;17.70;8.23;;;14.30;60.70;;;13.69;48.50;101040.06;5016566;28;20049;-82
2023/06/02 05:01:31;;;;;;;14.57;7.88;;;14.30;61.00;;;13.68;48.42;101041.09;5009764;28;20129;-81
2023/06/02 05:03:58;;;;;;;21.17;8.27;;;14.30;60.90;;;13.67;48.30;101027.94;5028280;28;20131;-82
2023/06/02 05:06:25;;;;;;;21.58;8.40;;;14.30;61.00;;;13.65;48.49;101039.66;5039468;28;20048;-83
2023/06/02 05:08:54;;;;;;;19.17;8.65;;;14.30;61.00;;;13.65;48.61;101044.22;5029533;28;20045;-80
2023/06/02 05:11:21;;;;;;;19.92;8.38;;;14.20;61.10;;;13.67;48.68;101038.66;5029962;28;20044;-83
2023/06/02 05:13:48;;;;;;;23.65;8.23;;;14.30;61.40;;;13.68;49.06;101035.75;5026738;28;20704;-85
2023/06/02 05:16:17;;;;;;;15.57;8.25;;;14.30;61.60;;;13.71;49.33;101045.19;5001085;28;20045;-85
2023/06/02 05:18:44;;;;;;;17.73;9.07;;;14.30;62.00;;;13.71;49.28;101045.19;5017721;28;20041;-84
2023/06/02 05:21:15;;;;;;;21.27;9.93;;;14.30;61.80;;;13.72;49.07;101046.84;5011693;28;20453;-85
2023/06/02 05:23:43;;;;;;;19.17;10.48;;;14.30;61.70;;;13.70;48.89;101049.72;5012978;28;20092;-84
2023/06/02 05:26:11;;;;;;;18.65;10.48;;;14.30;61.50;;;13.71;48.97;101050.56;5018518;28;20041;-81
2023/06/02 05:28:42;;;;;;;19.65;9.60;;;14.30;61.40;;;13.69;48.73;101044.59;5027291;28;20289;-82
2023/06/02 05:31:10;;;;;;;14.97;8.60;;;14.30;61.20;;;13.71;48.88;101048.69;5015600;28;20533;-82
2023/06/02 05:33:38;;;;;;;18.75;7.82;;;14.30;61.60;;;13.72;49.28;101050.34;5011316;28;20518;-82
2023/06/02 05:36:06;;;;;;;17.50;7.10;;;14.30;61.70;;;13.73;48.84;101049.31;5011449;28;20049;-82
2023/06/02 05:38:33;;;;;;;19.25;6.13;;;14.30;61.60;;;13.75;49.46;101046.41;5012389;28;20413;-83
2023/06/02 05:41:03;;;;;;;22.85;6.40;;;14.30;62.20;;;13.76;49.67;101050.72;5004701;28;20038;-84
2023/06/02 05:43:32;;;;;;;14.00;5.40;;;14.40;62.00;;;13.76;49.29;101051.56;5007098;28;20502;-83
2023/06/02 05:46:00;;;;;;;15.75;6.00;;;14.30;61.90;;;13.78;49.51;101060.19;5029241;28;20072;-82
2023/06/02 05:48:27;;;;;;;14.95;5.90;;;14.40;62.00;;;13.79;49.52;101048.44;5009059;28;20160;-82
2023/06/02 05:50:56;;;;;;;18.70;6.03;;;14.40;62.00;;;13.81;49.56;101045.53;5000216;28;20069;-84
2023/06/02 05:53:24;;;;;;;14.48;5.10;;;14.40;62.40;;;13.79;48.84;101055.66;5029561;28;20057;-83
2023/06/02 05:55:52;;;;;;;15.18;4.75;;;14.40;61.40;;;13.77;48.61;101047.03;5011555;28;20072;-83
2023/06/02 05:58:20;;;;;;;13.25;5.30;;;14.50;61.40;;;13.79;48.72;101045.75;5012480;28;20049;-82
2023/06/02 06:00:50;;;;;;;21.48;5.30;;;14.40;61.20;;;13.79;48.62;101051.13;5007551;28;20129;-82
2023/06/02 06:03:17;;;;;;;13.73;5.30;;;14.40;61.10;;;13.78;48.51;101054.84;5014090;28;20049;-81
2023/06/02 06:05:46;;;;;;;11.63;4.60;;;14.40;61.10;;;13.80;48.50;101054.63;5011927;28;20041;-81
2023/06/02 06:08:13;;;;;;;17.77;5.38;;;14.40;61.20;;;13.80;48.56;101046.56;5029780;28;20390;-82
2023/06/02 06:10:42;;;;;;;17.50;5.47;;;14.40;61.10;;;13.78;48.66;101052.16;5006934;28;20120;-83
2023/06/02 06:13:13;;;;;;;17.13;4.97;;;14.40;61.20;;;13.77;48.73;101050.53;5008829;28;20060;-82
2023/06/02 06:15:40;;;;;;;15.00;5.25;;;14.40;61.20;;;13.80;48.76;101054.63;5029328;28;20132;-83
2023/06/02 06:18:09;;;;;;;15.32;5.28;;;14.40;61.30;;;13.78;48.75;101057.53;5030396;28;20042;-82
2023/06/02 06:20:36;;;;;;;19.85;6.28;;;14.40;61.30;;;13.79;48.73;101059.16;5022983;28;20593;-81
2023/06/02 06:23:04;;;;;;;17.05;5.25;;;14.40;61.20;;;13.81;49.02;101057.09;5007726;28;20052;-82
2023/06/02 06:25:33;;;;;;;16.58;4.88;;;14.40;61.50;;;13.82;48.52;101053.38;5019596;28;20438;-82
2023/06/02 06:28:00;;;;;;;12.50;4.97;;;14.40;61.00;;;13.84;48.82;101064.69;5030278;28;20033;-82
2023/06/02 06:30:30;;;;;;;19.67;5.88;;;14.40;61.00;;;13.81;48.01;101061.63;5019856;28;20572;-81
2023/06/02 06:33:01;;;;;;;15.27;5.13;;;14.40;60.30;;;13.81;48.70;101062.47;5007299;28;20163;-81
2023/06/02 06:35:30;;;;;;;17.73;5.90;;;14.40;60.90;;;13.83;49.03;101071.09;5028802;28;20052;-83
2023/06/02 06:37:58;;;;;;;19.02;7.22;;;14.50;61.80;;;13.84;48.84;101063.88;5011586;28;20053;-83
2023/06/02 06:40:25;;;;;;;16.95;5.65;;;14.40;61.40;;;13.84;48.37;101071.91;5026984;28;20049;-83
2023/06/02 06:42:52;;;;;;;16.17;5.78;;;14.50;60.90;;;13.86;48.68;101064.50;5006083;28;20053;-82
2023/06/02 06:45:26;;;;;;;17.10;5.63;;;14.50;61.40;;;13.86;48.57;101064.50;5028122;28;20053;-82
2023/06/02 06:47:54;;;;;;;17.33;5.55;;;14.50;61.10;;;13.87;48.55;101066.94;5012227;28;20574;-81
2023/06/02 06:50:22;;;;;;;17.83;5.82;;;14.50;61.20;;;13.87;48.95;101066.94;5025331;28;20046;-83
2023/06/02 06:52:50;;;;;;;21.60;6.40;;;14.50;61.70;;;13.87;48.35;101072.31;5036365;28;20511;-82
2023/06/02 06:55:17;;;;;;;14.60;5.57;;;14.40;60.60;;;13.86;47.96;101073.34;5029269;28;20041;-81
2023/06/02 06:57:47;;;;;;;15.52;6.05;;;14.50;60.50;;;13.87;48.21;101077.66;5029423;28;20063;-82
2023/06/02 07:00:17;;;;;;;15.75;5.88;;;14.40;60.50;;;13.85;48.58;101074.38;5027896;28;20129;-81
2023/06/02 07:02:44;;;;;;;15.00;6.10;;;14.50;61.00;;;13.86;48.70;101077.91;5001899;28;20123;-82
2023/06/02 07:05:11;;;;;;;14.38;6.03;;;14.50;61.20;;;13.88;49.06;101076.63;5026263;28;20581;-83
2023/06/02 07:07:38;;;;;;;14.45;5.53;;;14.50;61.80;;;13.90;48.79;101082.56;5027897;28;20064;-82
2023/06/02 07:10:08;;;;;;;16.92;6.00;;;14.50;61.40;;;13.91;48.69;101081.56;5011563;28;20041;-81
2023/06/02 07:12:35;;;;;;;18.60;5.90;;;14.50;61.10;;;13.95;48.92;101075.75;5028815;28;20410;-82
2023/06/02 07:15:03;;;;;;;13.95;5.38;;;14.60;61.60;;;13.98;48.74;101083.38;5028572;28;20045;-82
2023/06/02 07:17:30;;;;;;;15.82;5.65;;;14.60;61.50;;;14.00;48.63;101078.59;5028569;28;20041;-84
2023/06/02 07:19:57;;;;;;;14.25;5.40;;;14.60;61.20;;;14.00;48.81;101082.09;5028509;28;20049;-81
2023/06/02 07:22:28;;;;;;;19.50;5.95;;;14.60;61.30;;;14.02;48.58;101087.25;5028748;28;20859;-83
2023/06/02 07:24:55;;;;;;;19.48;5.78;;;14.60;61.00;;;14.02;48.79;101077.34;5029361;28;20576;-81
2023/06/02 07:27:24;;;;;;;12.30;5.72;;;14.70;61.20;;;14.02;48.18;101082.72;5027286;28;20052;-81
2023/06/02 07:29:51;;;;;;;18.70;6.45;;;14.70;60.50;;;14.00;48.19;101086.63;5029352;28;20081;-81
2023/06/02 07:32:18;;;;;;;16.45;5.38;;;14.60;60.30;;;13.95;48.38;101081.91;5027639;28;20092;-82
2023/06/02 07:34:46;;;;;;;13.32;5.13;;;14.60;60.60;;;13.97;48.56;101079.03;5029235;28;20045;-81
2023/06/02 07:37:13;;;;;;;13.88;5.55;;;14.60;61.00;;;13.98;48.34;101086.03;5019855;28;20073;-83
2023/06/02 07:39:40;;;;;;;18.73;5.50;;;14.60;60.80;;;13.98;48.16;101084.19;5028160;28;20080;-82
2023/06/02 07:42:11;;;;;;;15.07;5.13;;;14.60;60.60;;;13.99;48.31;101082.31;5028183;28;20043;-83
2023/06/02 07:44:39;;;;;;;19.83;5.80;;;14.60;60.60;;;14.00;48.24;101092.81;5028287;28;20128;-82
2023/06/02 07:47:07;;;;;;;17.95;6.00;;;14.60;60.80;;;14.00;48.07;101078.59;5020197;28;20483;-82
2023/06/02 07:49:34;;;;;;;14.98;5.05;;;14.60;60.20;;;14.02;48.45;101080.03;5022639;28;20124;-81
2023/06/02 07:52:04;;;;;;;12.77;5.00;;;14.60;60.90;;;14.07;49.48;101076.69;5027670;28;20121;-82
2023/06/02 07:54:31;;;;;;;21.88;7.05;;;14.70;62.00;;;14.06;48.61;101080.41;5027903;28;20041;-81
2023/06/02 07:56:59;;;;;;;14.70;5.57;;;14.70;61.00;;;14.11;48.95;101072.53;5026370;28;20471;-82
2023/06/02 07:59:26;;;;;;;16.92;5.78;;;14.80;61.30;;;14.14;48.47;101074.75;5028544;28;20052;-83
2023/06/02 08:01:54;;;;;;;15.45;5.45;;;14.80;60.70;;;14.18;48.99;101076.78;5027797;28;20446;-81
2023/06/02 08:04:25;;;;;;;17.75;5.78;;;14.80;61.50;;;14.18;47.95;101078.66;5010907;28;20041;-83
2023/06/02 08:06:54;;;;;;;14.00;5.60;;;14.80;60.30;;;14.18;47.98;101081.31;5140133;22;20045;-82
2023/06/02 08:09:23;;;;;;;20.88;6.30;;;14.80;60.40;;;14.21;48.65;101083.59;5030058;28;20041;-82
2023/06/02 08:11:51;;;;;;;19.92;6.05;;;14.80;61.20;;;14.23;48.46;101086.84;5048268;28;20041;-82
2023/06/02 08:14:19;;;;;;;15.50;5.45;;;14.90;60.80;;;14.27;48.95;101089.94;5044215;28;20041;-82
2023/06/02 08:16:46;;;;;;;16.48;5.50;;;14.90;61.50;;;14.30;48.73;101087.63;5032953;28;20124;-82
2023/06/02 08:19:15;;;;;;;16.73;5.63;;;14.90;61.00;;;14.31;48.59;101096.50;5027546;28;20060;-82
2023/06/02 08:21:42;;;;;;;13.93;5.75;;;14.90;60.90;;;14.32;48.04;101092.78;5025915;28;20041;-82
2023/06/02 08:24:09;;;;;;;16.30;5.75;;;14.90;60.40;;;14.28;47.44;101095.06;5028357;28;20117;-82
2023/06/02 08:26:39;;;;;;;16.85;5.72;;;14.90;59.60;;;14.32;48.05;101090.91;5028026;28;20041;-82
2023/06/02 08:29:08;;;;;;;21.45;6.30;;;15.00;60.40;;;14.35;48.66;101095.84;5028723;28;20053;-82
2023/06/02 08:31:36;;;;;;;17.98;5.78;;;15.00;61.30;;;14.40;47.90;101093.31;5026783;28;20042;-82
2023/06/02 08:34:04;;;;;;;14.35;5.55;;;15.00;60.10;;;14.43;47.67;101084.81;5026319;28;20045;-82
2023/06/02 08:36:33;;;;;;;17.38;5.57;;;15.00;59.60;;;14.48;47.67;101094.09;5017062;28;20127;-82
2023/06/02 08:39:06;;;;;;;20.58;5.40;;;15.10;59.80;;;14.50;47.46;101089.34;5008103;28;20045;-82
2023/06/02 08:41:49;;;;;;;12.50;5.15;;;15.10;59.50;;;14.53;46.94;101087.00;4998908;28;20076;-82
2023/06/02 08:44:16;;;;;;;14.98;5.78;;;15.10;59.10;;;14.55;46.95;101089.50;5023926;28;20042;-82
2023/06/02 08:46:48;;;;;;;15.85;5.45;;;15.10;58.80;;;14.55;46.71;101092.19;5028539;28;20052;-82
2023/06/02 08:49:18;;;;;;;18.02;5.68;;;15.20;58.40;;;14.58;46.78;101087.16;5014417;28;20461;-82
2023/06/02 08:51:52;;;;;;;13.02;5.55;;;15.20;58.50;;;14.57;46.28;101085.53;5029716;28;20482;-82
2023/06/02 08:54:20;;;;;;;10.57;4.95;;;15.20;57.90;;;14.61;47.12;101080.53;5031905;28;20052;-82
2023/06/02 08:56:51;;;;;;;14.07;5.63;;;15.20;59.10;;;14.67;46.92;101087.69;5031278;28;20128;-82
2023/06/02 08:59:20;;;;;;;13.10;5.53;;;15.30;59.10;;;14.70;47.30;101083.75;5014182;28;20053;-82
2023/06/02 09:01:47;;;;;;;13.20;5.35;;;15.30;59.30;;;14.75;47.13;101083.91;5012509;28;20069;-82
2023/06/02 09:04:15;;;;;;;17.67;5.45;;;15.30;59.10;;;14.79;47.62;101085.94;5021708;28;20061;-82
2023/06/02 09:06:43;;;;;;;14.82;5.32;;;15.40;59.70;;;14.82;46.99;101082.78;5018295;28;20052;-82
2023/06/02 09:09:12;;;;;;;14.57;4.93;;;15.40;58.80;;;14.88;48.45;101083.75;5013093;28;20048;-83
2023/06/02 09:11:39;;;;;;;15.55;6.07;;;15.50;61.00;;;14.92;48.89;101085.75;5030315;28;20037;-82
2023/06/02 09:14:22;;;;;;;12.88;4.72;;;15.60;61.50;;;15.03;47.90;101077.97;5005672;28;20463;-82
2023/06/02 09:16:49;;;;;;;14.82;5.18;;;15.60;59.90;;;15.12;46.35;101076.63;4991759;28;20061;-82
2023/06/02 09:19:16;;;;;;;11.02;4.70;;;15.70;58.00;;;15.19;46.69;101075.50;5011993;28;20141;-83
2023/06/02 09:21:47;;;;;;;9.50;3.72;;;15.80;58.30;;;15.23;45.90;101075.88;5024516;28;20107;-83
2023/06/02 09:24:31;;;;;;;14.77;4.10;;;15.80;57.40;;;15.21;46.96;101061.84;5013342;28;20315;-83
2023/06/02 09:26:59;;;;;;;16.15;4.75;;;15.80;58.90;;;15.25;46.14;101065.72;5030653;28;20053;-83
2023/06/02 09:29:27;;;;;;;15.05;4.22;;;15.90;57.90;;;15.33;45.63;101070.78;5031324;28;20124;-83
2023/06/02 09:31:58;;;;;;;15.15;3.78;;;15.90;57.10;;;15.43;45.26;101071.06;5029533;28;20045;-83
2023/06/02 09:34:35;;;;;;;18.63;4.63;;;16.00;56.70;;;15.48;45.40;101066.88;5011269;28;20052;-83
2023/06/02 09:37:10;;;;;;;14.48;4.38;;;16.00;56.80;;;15.46;45.27;101067.06;5011425;28;20415;-83
2023/06/02 09:39:43;;;;;;;17.30;5.05;;;16.10;56.50;;;15.56;46.23;101069.22;4992902;28;20541;-83
2023/06/02 09:42:12;;;;;;;13.88;4.13;;;16.10;57.80;;;15.71;47.46;101064.25;5026719;28;20498;-83
2023/06/02 09:44:40;;;;;;;11.60;4.07;;;16.30;59.30;;;15.76;45.65;101060.88;5001731;28;20048;-83
2023/06/02 09:47:21;;;;;;;14.85;4.07;;;16.30;56.90;;;15.82;45.41;101060.78;5030238;28;20402;-83
2023/06/02 09:49:48;;;;;;;12.20;3.90;;;16.40;56.70;;;15.87;45.61;101046.66;5030567;28;20049;-83
2023/06/02 09:52:17;;;;;;;13.45;4.30;;;16.50;57.00;;;15.85;46.44;101057.63;5028148;28;20124;-83
2023/06/02 09:54:48;;;;;;;13.68;4.00;;;16.50;57.90;;;15.90;46.01;101065.00;5021765;28;20057;-82
2023/06/02 09:57:17;;;;;;;12.65;4.13;;;16.50;57.50;;;15.94;47.08;101069.69;5029345;28;20080;-83
2023/06/02 09:59:46;;;;;;;12.35;4.28;;;16.60;58.50;;;15.99;46.36;101062.78;5004538;28;20057;-83
2023/06/02 10:02:16;;;;;;;15.13;4.55;;;16.60;57.70;;;16.07;47.77;101054.38;5028840;28;20069;-83
2023/06/02 10:04:45;;;;;;;10.75;3.92;;;16.70;60.10;;;16.13;46.37;101064.22;5019612;28;20124;-83
2023/06/02 10:07:35;;;;;;;13.25;3.90;;;16.70;57.80;;;16.11;45.58;101060.94;5029221;28;20045;-83
2023/06/02 10:10:19;;;;;;;13.10;4.43;;;16.70;56.70;;;16.08;46.02;101061.41;5029408;28;20129;-83
2023/06/02 10:13:15;;;;;;;12.40;4.13;;;16.70;57.30;;;16.08;45.50;101058.72;5020950;28;20037;-83